Time;durP1;ratioP1;P1;durP2;ratioP2;P2;SDS_P1;SDS_P2;PMS_P1;PMS_P2;Temp;Humidity;BMP_temperature;BMP_pressure;BME280_temperature;BME280_humidity;BME280_pressure;Samples;Min_cycle;Max_cycle;Signal;HPM_P1;HPM_P2
2023/03/07 00:00:00;;;;;;;;;;;;;;;10.84;42.67;99266.47;4910058;28;99147;-70
2023/03/07 00:02:26;;;;;;;;;;;;;;;10.84;43.20;99263.78;4947306;28;98353;-67
2023/03/07 00:04:52;;;;;;;;;;;;;;;10.81;42.92;99260.59;4907931;28;98094;-67
2023/03/07 00:07:19;;;;;;;;;;;;;;;10.79;42.80;99257.38;4925092;28;98542;-69
2023/03/07 00:09:45;;;;;;;;;;;;;;;10.78;42.89;99250.41;4917796;28;98146;-69
2023/03/07 00:12:11;;;;;;;;;;;;;;;10.78;42.89;99244.22;4908771;28;98273;-67
2023/03/07 00:14:38;;;;;;;;;;;;;;;10.77;43.17;99248.03;4935548;28;98010;-70
2023/03/07 00:17:04;;;;;;;;;;;;;;;10.76;43.14;99247.19;4939220;28;101864;-67
2023/03/07 00:19:30;;;;;;;;;;;;;;;10.75;43.36;99256.38;4933431;28;98046;-67
2023/03/07 00:21:57;;;;;;;;;;;;;;;10.73;43.22;99244.31;4924379;28;97914;-68
2023/03/07 00:24:23;;;;;;;;;;;;;;;10.73;42.95;99247.00;4919858;28;98815;-68
2023/03/07 00:26:50;;;;;;;;;;;;;;;10.72;42.99;99240.00;4927348;28;97815;-70
2023/03/07 00:29:16;;;;;;;;;;;;;;;10.70;43.28;99245.69;4924233;28;113398;-67
2023/03/07 00:31:42;;;;;;;;;;;;;;;10.71;42.99;99235.72;4903404;28;98105;-68
2023/03/07 00:34:08;;;;;;;;;;;;;;;10.69;42.97;99233.34;4907850;28;98328;-70
2023/03/07 00:36:35;;;;;;;;;;;;;;;10.69;43.00;99232.50;4911884;28;97907;-68
2023/03/07 00:39:01;;;;;;;;;;;;;;;10.68;42.69;99233.59;4934429;28;99112;-70
2023/03/07 00:41:28;;;;;;;;;;;;;;;10.68;42.84;99231.72;4953381;28;98094;-68
2023/03/07 00:43:54;;;;;;;;;;;;;;;10.66;43.39;99236.63;4934861;28;98428;-70
2023/03/07 00:46:21;;;;;;;;;;;;;;;10.66;42.77;99227.72;4919049;28;100553;-70
2023/03/07 00:48:48;;;;;;;;;;;;;;;10.66;42.98;99227.72;4920897;28;98291;-71
2023/03/07 00:51:15;;;;;;;;;;;;;;;10.66;43.12;99216.97;4901773;28;97980;-67
2023/03/07 00:53:41;;;;;;;;;;;;;;;10.65;43.04;99210.78;4906502;28;97909;-70
2023/03/07 00:56:17;;;;;;;;;;;;;;;10.64;43.14;99208.34;4920129;28;97847;-70
2023/03/07 00:58:43;;;;;;;;;;;;;;;10.63;42.94;99198.69;4920155;28;98040;-67
2023/03/07 01:01:10;;;;;;;;;;;;;;;10.63;43.31;99202.16;4919982;28;98119;-68
2023/03/07 01:03:36;;;;;;;;;;;;;;;10.62;42.91;99195.19;4907656;28;98247;-70
2023/03/07 01:06:07;;;;;;;;;;;;;;;10.62;43.10;99195.19;4923805;28;98712;-70
2023/03/07 01:08:34;;;;;;;;;;;;;;;10.61;42.99;99193.59;4908055;28;97864;-70
2023/03/07 01:11:01;;;;;;;;;;;;;;;10.62;42.71;99184.41;4920820;28;99154;-67
2023/03/07 01:13:27;;;;;;;;;;;;;;;10.60;43.07;99183.91;4904133;28;100102;-67
2023/03/07 01:15:54;;;;;;;;;;;;;;;10.60;43.03;99173.13;4906359;28;98088;-70
2023/03/07 01:18:20;;;;;;;;;;;;;;;10.60;42.98;99178.50;4919095;28;100429;-69
2023/03/07 01:20:46;;;;;;;;;;;;;;;10.60;43.00;99172.31;4909275;28;98122;-68
2023/03/07 01:23:13;;;;;;;;;;;;;;;10.60;42.77;99166.94;4906736;28;99824;-70
2023/03/07 01:25:42;;;;;;;;;;;;;;;10.60;42.63;99172.31;4914954;28;100092;-68
2023/03/07 01:28:11;;;;;;;;;;;;;;;10.57;42.90;99171.00;4917908;28;109942;-68
2023/03/07 01:30:37;;;;;;;;;;;;;;;10.58;43.07;99159.16;4909720;28;97975;-67
2023/03/07 01:33:03;;;;;;;;;;;;;;;10.57;42.80;99152.97;4906843;28;97969;-69
2023/03/07 01:35:34;;;;;;;;;;;;;;;10.57;43.34;99146.75;4909691;28;97999;-68
2023/03/07 01:38:00;;;;;;;;;;;;;;;10.56;43.21;99140.56;4915313;28;113076;-70
2023/03/07 01:40:26;;;;;;;;;;;;;;;10.56;42.83;99137.09;4909002;28;98109;-70
2023/03/07 01:42:53;;;;;;;;;;;;;;;10.56;43.31;99134.41;4909836;28;98707;-67
2023/03/07 01:45:34;;;;;;;;;;;;;;;10.54;43.08;99125.81;4906863;28;112490;-67
2023/03/07 01:48:00;;;;;;;;;;;;;;;10.53;43.37;99122.34;4937210;28;98149;-67
2023/03/07 01:50:27;;;;;;;;;;;;;;;10.52;42.87;99117.22;4941568;28;98071;-69
2023/03/07 01:52:55;;;;;;;;;;;;;;;10.53;43.08;99105.34;4910654;28;98400;-70
2023/03/07 01:55:31;;;;;;;;;;;;;;;10.51;42.70;99113.75;4924065;28;99112;-69
2023/03/07 01:57:59;;;;;;;;;;;;;;;10.52;43.13;99109.16;4927135;28;98260;-67
2023/03/07 02:00:28;;;;;;;;;;;;;;;10.50;42.78;99109.47;4906388;28;100244;-67
2023/03/07 02:03:09;;;;;;;;;;;;;;;10.49;42.93;99099.78;4911056;28;98081;-69
2023/03/07 02:05:40;;;;;;;;;;;;;;;10.50;43.35;99101.38;4939044;28;97939;-67
2023/03/07 02:08:07;;;;;;;;;;;;;;;10.49;43.01;99105.16;4910732;28;98153;-67
2023/03/07 02:10:34;;;;;;;;;;;;;;;10.48;43.17;99095.47;4934617;28;98235;-70
2023/03/07 02:13:00;;;;;;;;;;;;;;;10.48;42.67;99089.28;4924436;28;98019;-67
2023/03/07 02:15:26;;;;;;;;;;;;;;;10.47;42.86;99085.00;4908765;28;98272;-67
2023/03/07 02:17:52;;;;;;;;;;;;;;;10.47;43.18;99083.09;4910025;28;97892;-69
2023/03/07 02:20:26;;;;;;;;;;;;;;;10.46;42.92;99072.63;4911678;28;97959;-69
2023/03/07 02:22:52;;;;;;;;;;;;;;;10.46;42.61;99072.63;4941723;28;98418;-67
2023/03/07 02:25:48;;;;;;;;;;;;;;;10.45;42.75;99073.72;4939605;28;100078;-68
2023/03/07 02:28:15;;;;;;;;;;;;;;;10.43;43.38;99063.25;4928568;28;100500;-69
2023/03/07 02:31:00;;;;;;;;;;;;;;;10.41;42.71;99054.66;4938532;28;98292;-67
2023/03/07 02:33:27;;;;;;;;;;;;;;;10.42;43.17;99056.28;4905844;28;99693;-67
2023/03/07 02:35:59;;;;;;;;;;;;;;;10.41;43.01;99060.03;4915245;28;98097;-69
2023/03/07 02:38:25;;;;;;;;;;;;;;;10.40;42.96;99049.59;4926526;28;115242;-70
2023/03/07 02:40:52;;;;;;;;;;;;;;;10.40;42.98;99049.59;4910511;28;97945;-69
2023/03/07 02:43:18;;;;;;;;;;;;;;;10.38;42.69;99044.50;4909746;28;100041;-67
2023/03/07 02:45:44;;;;;;;;;;;;;;;10.38;42.63;99044.50;4907764;28;99799;-67
2023/03/07 02:48:10;;;;;;;;;;;;;;;10.37;43.27;99037.50;4916549;28;98207;-69
2023/03/07 02:50:37;;;;;;;;;;;;;;;10.38;43.08;99038.31;4912448;28;99774;-67
2023/03/07 02:53:03;;;;;;;;;;;;;;;10.37;42.93;99036.72;4926348;28;98882;-67
2023/03/07 02:55:29;;;;;;;;;;;;;;;10.37;42.67;99034.00;4936649;28;99599;-69
2023/03/07 02:57:55;;;;;;;;;;;;;;;10.35;43.00;99023.56;4909622;28;98177;-67
2023/03/07 03:00:21;;;;;;;;;;;;;;;10.35;43.08;99023.56;4922098;28;115134;-67
2023/03/07 03:02:47;;;;;;;;;;;;;;;10.34;42.97;99021.97;4920319;28;100397;-67
2023/03/07 03:05:14;;;;;;;;;;;;;;;10.35;42.91;99014.69;4920584;28;98077;-69
2023/03/07 03:07:40;;;;;;;;;;;;;;;10.34;42.84;99010.41;4907688;28;99531;-70
2023/03/07 03:10:07;;;;;;;;;;;;;;;10.34;42.86;99005.81;4920982;28;99137;-67
2023/03/07 03:12:33;;;;;;;;;;;;;;;10.33;43.24;99004.19;4901677;28;98003;-68
2023/03/07 03:14:59;;;;;;;;;;;;;;;10.32;43.26;99002.59;4916954;28;98079;-67
2023/03/07 03:17:25;;;;;;;;;;;;;;;10.33;42.45;99004.19;4936588;28;98288;-70
2023/03/07 03:19:51;;;;;;;;;;;;;;;10.32;42.77;98991.81;4909248;28;98525;-70
2023/03/07 03:22:19;;;;;;;;;;;;;;;10.31;43.09;98990.25;4922814;28;98558;-71
2023/03/07 03:24:45;;;;;;;;;;;;;;;10.32;42.84;98989.13;4908317;28;99987;-71
2023/03/07 03:27:11;;;;;;;;;;;;;;;10.31;43.42;98984.84;4920489;28;98519;-67
2023/03/07 03:29:37;;;;;;;;;;;;;;;10.30;42.82;98978.66;4943663;28;97989;-67
2023/03/07 03:32:04;;;;;;;;;;;;;;;10.31;43.04;98974.06;4907337;28;99459;-67
2023/03/07 03:34:30;;;;;;;;;;;;;;;10.30;43.32;98975.19;4936062;28;99057;-70
2023/03/07 03:36:56;;;;;;;;;;;;;;;10.30;42.77;98969.78;4917615;28;99577;-70
2023/03/07 03:39:22;;;;;;;;;;;;;;;10.29;42.90;98974.34;4918957;28;98052;-67
2023/03/07 03:41:48;;;;;;;;;;;;;;;10.29;42.94;98965.50;4921500;28;98276;-70
2023/03/07 03:44:14;;;;;;;;;;;;;;;10.28;42.44;98961.22;4911426;28;98096;-67
2023/03/07 03:46:41;;;;;;;;;;;;;;;10.27;42.68;98951.53;4908837;28;98008;-69
2023/03/07 03:49:10;;;;;;;;;;;;;;;10.28;42.60;98956.63;4918161;28;97992;-70
2023/03/07 03:51:36;;;;;;;;;;;;;;;10.27;42.95;98952.34;4922450;28;100272;-70
2023/03/07 03:54:02;;;;;;;;;;;;;;;10.26;42.71;98944.56;4905535;28;98097;-70
2023/03/07 03:56:28;;;;;;;;;;;;;;;10.27;42.80;98943.47;4938035;28;98121;-68
2023/03/07 03:58:55;;;;;;;;;;;;;;;10.25;42.72;98932.97;4909056;28;98178;-70
2023/03/07 04:01:23;;;;;;;;;;;;;;;10.25;42.93;98934.88;4933516;28;99569;-70
2023/03/07 04:03:50;;;;;;;;;;;;;;;10.24;43.33;98928.66;4921143;28;98105;-68
2023/03/07 04:06:18;;;;;;;;;;;;;;;10.24;43.01;98922.47;4908728;28;98245;-68
2023/03/07 04:08:45;;;;;;;;;;;;;;;10.24;43.17;98920.59;4910232;28;98401;-68
2023/03/07 04:11:11;;;;;;;;;;;;;;;10.23;43.14;98924.38;4906059;28;98358;-67
2023/03/07 04:13:37;;;;;;;;;;;;;;;10.23;42.71;98918.19;4905688;28;98319;-70
2023/03/07 04:16:04;;;;;;;;;;;;;;;10.23;43.08;98910.13;4906260;28;97926;-68
2023/03/07 04:18:30;;;;;;;;;;;;;;;10.22;42.96;98897.78;4908189;28;97896;-70
2023/03/07 04:20:56;;;;;;;;;;;;;;;10.22;42.63;98903.16;4908479;28;98232;-69
2023/03/07 04:23:23;;;;;;;;;;;;;;;10.21;43.14;98891.56;4919303;28;98169;-70
2023/03/07 04:25:55;;;;;;;;;;;;;;;10.20;42.60;98889.97;4919238;28;98383;-68
2023/03/07 04:28:23;;;;;;;;;;;;;;;10.20;42.49;98895.34;4926802;28;98701;-67
2023/03/07 04:30:49;;;;;;;;;;;;;;;10.20;42.96;98881.88;4908086;28;98610;-67
2023/03/07 04:33:15;;;;;;;;;;;;;;;10.19;43.15;98885.69;4904952;28;98113;-71
2023/03/07 04:35:41;;;;;;;;;;;;;;;10.19;43.00;98877.63;4920228;28;97877;-70
2023/03/07 04:38:08;;;;;;;;;;;;;;;10.19;43.00;98872.22;4921606;28;98185;-67
2023/03/07 04:40:34;;;;;;;;;;;;;;;10.19;43.12;98868.75;4904523;28;98447;-70
2023/03/07 04:43:00;;;;;;;;;;;;;;;10.19;42.87;98869.53;4909916;28;97929;-68
2023/03/07 04:45:26;;;;;;;;;;;;;;;10.19;42.87;98874.91;4906976;28;106034;-69
2023/03/07 04:47:52;;;;;;;;;;;;;;;10.20;42.70;98864.94;4927483;28;98055;-66
2023/03/07 04:50:19;;;;;;;;;;;;;;;10.19;42.99;98857.97;4930132;28;129153;-67
2023/03/07 04:52:45;;;;;;;;;;;;;;;10.20;42.88;98856.88;4900175;28;98334;-66
2023/03/07 04:55:11;;;;;;;;;;;;;;;10.20;43.01;98856.88;4906103;28;98378;-66
2023/03/07 04:57:37;;;;;;;;;;;;;;;10.20;42.97;98854.97;4923921;28;97900;-69
2023/03/07 05:00:08;;;;;;;;;;;;;;;10.20;43.09;98846.88;4924851;28;98202;-69
2023/03/07 05:02:35;;;;;;;;;;;;;;;10.20;42.92;98849.56;4930445;28;100418;-67
2023/03/07 05:05:01;;;;;;;;;;;;;;;10.21;43.04;98850.38;4907850;28;97909;-69
2023/03/07 05:07:28;;;;;;;;;;;;;;;10.21;43.01;98851.16;4920651;28;98271;-69
2023/03/07 05:09:55;;;;;;;;;;;;;;;10.21;43.35;98848.47;4906942;28;100107;-69
2023/03/07 05:12:22;;;;;;;;;;;;;;;10.23;43.02;98848.19;4903683;28;98916;-69
2023/03/07 05:14:48;;;;;;;;;;;;;;;10.23;43.17;98845.50;4909470;28;97836;-67
2023/03/07 05:17:14;;;;;;;;;;;;;;;10.23;42.94;98840.91;4918191;28;99070;-70
2023/03/07 05:19:41;;;;;;;;;;;;;;;10.23;42.79;98832.81;4918061;28;101453;-68
2023/03/07 05:22:07;;;;;;;;;;;;;;;10.24;43.08;98831.72;4939803;28;99400;-67
2023/03/07 05:24:33;;;;;;;;;;;;;;;10.25;42.91;98832.53;4923672;28;98149;-67
2023/03/07 05:26:59;;;;;;;;;;;;;;;10.27;42.95;98830.34;4908191;28;98103;-69
2023/03/07 05:29:25;;;;;;;;;;;;;;;10.27;42.66;98833.84;4936839;28;98045;-69
2023/03/07 05:31:51;;;;;;;;;;;;;;;10.27;42.90;98831.13;4922324;28;101078;-66
2023/03/07 05:34:18;;;;;;;;;;;;;;;10.29;42.88;98826.22;4907923;28;97983;-69
2023/03/07 05:36:44;;;;;;;;;;;;;;;10.30;42.58;98829.75;4919410;28;98321;-66
2023/03/07 05:39:10;;;;;;;;;;;;;;;10.30;42.93;98827.84;4905421;28;98066;-67
2023/03/07 05:41:37;;;;;;;;;;;;;;;10.32;43.38;98819.44;4908019;28;97974;-69
2023/03/07 05:44:03;;;;;;;;;;;;;;;10.33;42.77;98815.66;4905410;28;98085;-70
2023/03/07 05:46:30;;;;;;;;;;;;;;;10.35;42.79;98818.84;4921232;28;98058;-67
2023/03/07 05:48:56;;;;;;;;;;;;;;;10.35;42.62;98810.78;4921810;28;98331;-67
2023/03/07 05:51:22;;;;;;;;;;;;;;;10.38;42.65;98815.56;4920687;28;99546;-68
2023/03/07 05:53:49;;;;;;;;;;;;;;;10.41;42.83;98803.34;4910145;28;98053;-69
2023/03/07 05:56:15;;;;;;;;;;;;;;;10.44;43.27;98808.13;4908637;28;98553;-70
2023/03/07 05:58:41;;;;;;;;;;;;;;;10.45;42.93;98809.72;4919125;28;99824;-67
2023/03/07 06:01:07;;;;;;;;;;;;;;;10.46;42.60;98805.94;4919346;28;98693;-67
2023/03/07 06:03:34;;;;;;;;;;;;;;;10.49;43.28;98805.31;4922759;28;99273;-67
2023/03/07 06:06:00;;;;;;;;;;;;;;;10.49;42.57;98799.91;4911036;28;97950;-66
2023/03/07 06:08:26;;;;;;;;;;;;;;;10.51;42.70;98801.22;4920922;28;98822;-69
2023/03/07 06:10:53;;;;;;;;;;;;;;;10.53;42.84;98807.09;4906062;28;97911;-67
2023/03/07 06:13:21;;;;;;;;;;;;;;;10.54;42.61;98797.91;4908568;28;97943;-70
2023/03/07 06:15:51;;;;;;;;;;;;;;;10.56;42.59;98802.97;4921475;28;98142;-69
2023/03/07 06:18:18;;;;;;;;;;;;;;;10.56;42.63;98802.97;4922918;28;98090;-68
2023/03/07 06:20:44;;;;;;;;;;;;;;;10.57;42.51;98807.25;4902545;28;98180;-69
2023/03/07 06:23:10;;;;;;;;;;;;;;;10.57;42.43;98805.38;4904450;28;99397;-67
2023/03/07 06:25:36;;;;;;;;;;;;;;;10.58;42.90;98814.25;4918458;28;100008;-67
2023/03/07 06:28:03;;;;;;;;;;;;;;;10.59;42.75;98815.84;4904330;28;98000;-66
2023/03/07 06:30:30;;;;;;;;;;;;;;;10.61;42.76;98807.44;4910561;28;99656;-67
2023/03/07 06:32:57;;;;;;;;;;;;;;;10.63;42.66;98819.53;4926299;28;97837;-69
2023/03/07 06:35:23;;;;;;;;;;;;;;;10.65;43.21;98809.25;4910488;28;97898;-67
2023/03/07 06:37:50;;;;;;;;;;;;;;;10.68;42.50;98811.31;4906323;28;100065;-70
2023/03/07 06:40:16;;;;;;;;;;;;;;;10.71;42.52;98821.47;4909403;28;98136;-67
2023/03/07 06:42:42;;;;;;;;;;;;;;;10.75;42.58;98808.97;4911365;28;100115;-67
2023/03/07 06:45:08;;;;;;;;;;;;;;;10.80;43.00;98808.03;4926961;28;98018;-69
2023/03/07 06:47:35;;;;;;;;;;;;;;;10.85;42.88;98813.31;4908955;28;98584;-68
2023/03/07 06:50:01;;;;;;;;;;;;;;;10.88;42.98;98815.38;4911122;28;97969;-69
2023/03/07 06:52:28;;;;;;;;;;;;;;;10.91;42.49;98811.28;4932733;28;98174;-67
2023/03/07 06:54:54;;;;;;;;;;;;;;;10.93;42.79;98811.78;4910083;28;98077;-69
2023/03/07 06:57:20;;;;;;;;;;;;;;;10.95;42.72;98799.56;4918996;28;99655;-66
2023/03/07 06:59:46;;;;;;;;;;;;;;;10.97;42.80;98805.47;4923179;28;98073;-67
2023/03/07 07:02:14;;;;;;;;;;;;;;;11.01;42.69;98809.13;4941045;28;98041;-70
2023/03/07 07:04:40;;;;;;;;;;;;;;;11.02;42.73;98802.63;4908160;28;98281;-66
2023/03/07 07:07:06;;;;;;;;;;;;;;;11.04;42.63;98803.13;4908555;28;99056;-66
2023/03/07 07:09:33;;;;;;;;;;;;;;;11.08;42.80;98803.28;4909605;28;98156;-66
2023/03/07 07:12:00;;;;;;;;;;;;;;;11.10;42.54;98806.47;4919580;28;98475;-69
2023/03/07 07:14:26;;;;;;;;;;;;;;;11.12;42.91;98801.56;4936937;28;98237;-69
2023/03/07 07:16:53;;;;;;;;;;;;;;;11.16;42.39;98802.53;4907650;28;98507;-66
2023/03/07 07:19:20;;;;;;;;;;;;;;;11.18;42.75;98797.63;4925061;28;98469;-69
2023/03/07 07:21:47;;;;;;;;;;;;;;;11.21;42.79;98796.22;4907505;28;99678;-69
2023/03/07 07:24:13;;;;;;;;;;;;;;;11.26;42.65;98791.47;4909794;28;101204;-67
2023/03/07 07:26:40;;;;;;;;;;;;;;;11.31;42.58;98794.00;4921539;28;97926;-67
2023/03/07 07:29:06;;;;;;;;;;;;;;;11.37;42.38;98791.97;4937622;28;98598;-70
2023/03/07 07:31:33;;;;;;;;;;;;;;;11.46;42.60;98778.50;4909911;28;98174;-67
2023/03/07 07:33:59;;;;;;;;;;;;;;;11.64;42.14;98782.06;4920512;28;97900;-68
2023/03/07 07:36:25;;;;;;;;;;;;;;;11.71;42.42;98791.28;4904249;28;99905;-69
2023/03/07 07:38:52;;;;;;;;;;;;;;;11.78;41.96;98783.50;4926252;28;98264;-69
2023/03/07 07:41:19;;;;;;;;;;;;;;;11.85;42.25;98776.88;4935017;28;100360;-69
2023/03/07 07:43:49;;;;;;;;;;;;;;;11.98;42.20;98779.41;4924027;28;98147;-68
2023/03/07 07:46:15;;;;;;;;;;;;;;;12.12;41.96;98781.97;4907715;28;98210;-67
2023/03/07 07:48:41;;;;;;;;;;;;;;;12.22;41.93;98787.06;4919540;28;97935;-67
2023/03/07 07:51:08;;;;;;;;;;;;;;;12.33;41.93;98779.41;4922276;28;98293;-68
2023/03/07 07:53:34;;;;;;;;;;;;;;;12.38;42.17;98773.88;4909857;28;98044;-69
2023/03/07 07:56:01;;;;;;;;;;;;;;;12.36;42.01;98776.06;4910130;28;98116;-68
2023/03/07 07:58:27;;;;;;;;;;;;;;;12.40;42.11;98773.53;4893259;28;100075;-70
2023/03/07 08:00:53;;;;;;;;;;;;;;;12.49;42.03;98767.00;4910482;28;98122;-67
2023/03/07 08:03:20;;;;;;;;;;;;;;;12.66;41.93;98771.59;4920873;28;98239;-68
2023/03/07 08:05:47;;;;;;;;;;;;;;;12.81;41.92;98767.59;4909825;28;98259;-70
2023/03/07 08:08:15;;;;;;;;;;;;;;;12.94;41.60;98769.28;4954614;28;98118;-69
2023/03/07 08:10:42;;;;;;;;;;;;;;;12.98;41.84;98758.59;4920271;28;98001;-68
2023/03/07 08:13:11;;;;;;;;;;;;;;;13.07;41.84;98759.34;4940076;28;99254;-69
2023/03/07 08:15:37;;;;;;;;;;;;;;;13.15;41.85;98768.56;4940047;28;97934;-71
2023/03/07 08:18:04;;;;;;;;;;;;;;;13.24;41.71;98767.44;4910362;28;98181;-68
2023/03/07 08:20:30;;;;;;;;;;;;;;;13.27;41.78;98768.69;4924872;28;98255;-69
2023/03/07 08:22:57;;;;;;;;;;;;;;;13.29;41.92;98765.69;4921970;28;97861;-70
2023/03/07 08:25:24;;;;;;;;;;;;;;;13.30;42.01;98762.63;4907829;28;98213;-68
2023/03/07 08:27:53;;;;;;;;;;;;;;;13.35;41.81;98765.16;4951321;28;98104;-70
2023/03/07 08:30:22;;;;;;;;;;;;;;;13.43;42.01;98772.44;4907204;28;98130;-69
2023/03/07 08:32:49;;;;;;;;;;;;;;;13.51;41.85;98760.75;4923474;28;98209;-69
2023/03/07 08:35:16;;;;;;;;;;;;;;;13.62;41.55;98747.63;4921975;28;99623;-68
2023/03/07 08:37:42;;;;;;;;;;;;;;;13.77;41.35;98756.31;4909411;28;98072;-67
2023/03/07 08:40:09;;;;;;;;;;;;;;;13.91;41.49;98751.41;4907100;28;98071;-67
2023/03/07 08:42:35;;;;;;;;;;;;;;;14.07;41.28;98765.16;4906796;28;98008;-68
2023/03/07 08:45:02;;;;;;;;;;;;;;;14.17;41.32;98762.06;4925429;28;97989;-69
2023/03/07 08:47:29;;;;;;;;;;;;;;;14.25;41.21;98753.84;4918441;28;98653;-67
2023/03/07 08:49:56;;;;;;;;;;;;;;;14.36;41.19;98750.72;4922918;28;97799;-67
2023/03/07 08:52:22;;;;;;;;;;;;;;;14.46;41.49;98755.72;4904725;28;98045;-68
2023/03/07 08:54:49;;;;;;;;;;;;;;;14.66;41.21;98746.78;4921459;28;98252;-70
2023/03/07 08:57:16;;;;;;;;;;;;;;;14.82;41.20;98748.88;4917675;28;98442;-69
2023/03/07 08:59:42;;;;;;;;;;;;;;;14.99;41.11;98743.22;4919603;28;98003;-69
2023/03/07 09:02:10;;;;;;;;;;;;;;;15.43;40.72;98749.66;4908883;28;97980;-70
2023/03/07 09:04:36;;;;;;;;;;;;;;;16.13;40.00;98740.50;4909816;28;98229;-68
2023/03/07 09:07:03;;;;;;;;;;;;;;;16.50;39.86;98738.41;4910126;28;98101;-67
2023/03/07 09:09:30;;;;;;;;;;;;;;;16.67;40.08;98735.38;4909529;28;98105;-68
2023/03/07 09:11:56;;;;;;;;;;;;;;;16.88;40.01;98737.09;4922403;28;98172;-70
2023/03/07 09:14:22;;;;;;;;;;;;;;;17.03;39.99;98736.31;4918111;28;98086;-68
2023/03/07 09:16:49;;;;;;;;;;;;;;;17.23;39.93;98731.72;4904417;28;99389;-68
2023/03/07 09:19:15;;;;;;;;;;;;;;;17.48;39.82;98726.06;4920982;28;99507;-70
2023/03/07 09:21:41;;;;;;;;;;;;;;;17.56;40.03;98731.31;4907623;28;99818;-68
2023/03/07 09:24:08;;;;;;;;;;;;;;;17.55;40.04;98727.00;4916886;28;98026;-70
2023/03/07 09:26:34;;;;;;;;;;;;;;;17.67;40.17;98729.59;4909092;28;98069;-68
2023/03/07 09:29:00;;;;;;;;;;;;;;;17.69;40.32;98728.47;4901902;28;98899;-71
2023/03/07 09:31:27;;;;;;;;;;;;;;;17.59;40.32;98727.09;4916798;28;98212;-68
2023/03/07 09:33:53;;;;;;;;;;;;;;;17.40;40.59;98722.38;4921213;28;98100;-68
2023/03/07 09:36:19;;;;;;;;;;;;;;;17.28;40.78;98727.94;4920582;28;109340;-69
2023/03/07 09:38:46;;;;;;;;;;;;;;;17.10;40.97;98722.09;4903655;28;97900;-68
2023/03/07 09:41:20;;;;;;;;;;;;;;;16.91;41.04;98722.78;4907528;28;98998;-68
2023/03/07 09:44:24;;;;;;;;;;;;;;;16.78;41.42;98724.00;4948208;28;99611;-70
2023/03/07 09:47:10;;;;;;;;;;;;;;;16.58;41.56;98718.41;4913078;28;98187;-69
2023/03/07 09:49:49;;;;;;;;;;;;;;;16.39;41.76;98721.03;4937114;28;98622;-68
2023/03/07 09:52:21;;;;;;;;;;;;;;;16.23;41.83;98712.03;4934654;28;97975;-70
2023/03/07 09:54:58;;;;;;;;;;;;;;;16.12;41.77;98709.81;4921050;28;98209;-69
2023/03/07 09:57:30;;;;;;;;;;;;;;;15.99;41.85;98718.34;4919940;28;99634;-68
2023/03/07 09:59:58;;;;;;;;;;;;;;;15.80;42.01;98717.06;4923598;28;100463;-67
2023/03/07 10:02:56;;;;;;;;;;;;;;;15.68;41.88;98717.88;4921862;28;98048;-70
2023/03/07 10:05:28;;;;;;;;;;;;;;;15.67;42.11;98715.50;4899395;28;99039;-68
2023/03/07 10:07:54;;;;;;;;;;;;;;;15.65;41.80;98698.78;4938521;28;97938;-68
2023/03/07 10:10:40;;;;;;;;;;;;;;;15.61;41.83;98700.56;4911180;28;97956;-71
2023/03/07 10:13:32;;;;;;;;;;;;;;;15.57;41.79;98696.94;4910627;28;98116;-71
2023/03/07 10:16:08;;;;;;;;;;;;;;;15.62;41.79;98694.00;4936943;28;98078;-68
2023/03/07 10:18:51;;;;;;;;;;;;;;;15.66;41.50;98690.25;4919222;28;98137;-68
2023/03/07 10:21:26;;;;;;;;;;;;;;;15.61;41.89;98690.47;4937158;28;98185;-68
2023/03/07 10:23:55;;;;;;;;;;;;;;;15.58;41.72;98691.16;4927539;28;98179;-68
2023/03/07 10:26:43;;;;;;;;;;;;;;;15.53;41.79;98685.19;4953251;28;99958;-71
2023/03/07 10:29:23;;;;;;;;;;;;;;;15.55;41.82;98688.34;4924483;28;99510;-68
2023/03/07 10:31:53;;;;;;;;;;;;;;;15.47;41.94;98685.41;4905731;28;99404;-68
2023/03/07 10:34:29;;;;;;;;;;;;;;;15.39;41.81;98685.53;4924302;28;98274;-68
2023/03/07 10:36:59;;;;;;;;;;;;;;;15.23;41.97;98685.44;4942661;28;99990;-70
2023/03/07 10:39:52;;;;;;;;;;;;;;;15.14;42.15;98687.50;4943771;28;97958;-68
2023/03/07 10:42:22;;;;;;;;;;;;;;;15.09;42.36;98685.00;4913033;28;98091;-68
2023/03/07 10:44:49;;;;;;;;;;;;;;;15.01;42.07;98681.25;4930744;28;98031;-68
2023/03/07 10:47:26;;;;;;;;;;;;;;;14.94;42.35;98683.78;4909255;28;98189;-70
2023/03/07 10:49:56;;;;;;;;;;;;;;;14.91;42.19;98676.31;4924580;28;97960;-71
2023/03/07 10:52:38;;;;;;;;;;;;;;;14.90;42.15;98672.03;4912660;28;98224;-68
2023/03/07 10:55:29;;;;;;;;;;;;;;;14.86;42.28;98673.81;4910595;28;98004;-69
2023/03/07 10:58:14;;;;;;;;;;;;;;;14.82;42.07;98654.72;4939559;28;98165;-67
2023/03/07 11:00:44;;;;;;;;;;;;;;;14.91;41.96;98654.59;4908984;28;98019;-68
2023/03/07 11:03:39;;;;;;;;;;;;;;;14.92;42.06;98643.41;4925246;28;98150;-70
2023/03/07 11:06:05;;;;;;;;;;;;;;;14.92;41.84;98650.75;4914100;28;98322;-70
2023/03/07 11:08:33;;;;;;;;;;;;;;;14.83;42.14;98650.09;4922549;28;98169;-69
2023/03/07 11:11:00;;;;;;;;;;;;;;;14.76;42.13;98647.13;4933112;28;97964;-70
2023/03/07 11:13:27;;;;;;;;;;;;;;;14.75;42.17;98640.13;4924477;28;98094;-68
2023/03/07 11:16:19;;;;;;;;;;;;;;;14.68;42.19;98635.28;4919526;28;100213;-68
2023/03/07 11:18:46;;;;;;;;;;;;;;;14.57;42.41;98637.63;4927052;28;98524;-67
2023/03/07 11:21:32;;;;;;;;;;;;;;;14.48;42.18;98632.28;4905352;28;98129;-67
2023/03/07 11:24:03;;;;;;;;;;;;;;;14.48;42.40;98636.91;4922300;28;98192;-67
2023/03/07 11:26:37;;;;;;;;;;;;;;;14.44;42.03;98625.16;4942035;28;98118;-69
2023/03/07 11:29:05;;;;;;;;;;;;;;;14.39;42.38;98628.88;4924583;28;98206;-69
2023/03/07 11:31:34;;;;;;;;;;;;;;;14.40;42.44;98629.69;4950640;28;98483;-68
2023/03/07 11:34:21;;;;;;;;;;;;;;;14.37;42.38;98614.09;4923180;28;98123;-67
2023/03/07 11:36:50;;;;;;;;;;;;;;;14.31;42.17;98621.66;4925465;28;99566;-67
2023/03/07 11:39:30;;;;;;;;;;;;;;;14.26;42.39;98613.72;4920130;28;98006;-68
2023/03/07 11:42:02;;;;;;;;;;;;;;;14.19;42.42;98608.88;4909948;28;98255;-67
2023/03/07 11:44:53;;;;;;;;;;;;;;;14.13;42.29;98612.13;4910093;28;98055;-68
2023/03/07 11:47:25;;;;;;;;;;;;;;;14.09;42.56;98594.94;4922689;28;98264;-68
2023/03/07 11:50:14;;;;;;;;;;;;;;;14.05;42.34;98602.94;4919593;28;98101;-71
2023/03/07 11:52:52;;;;;;;;;;;;;;;14.00;42.67;98593.13;4908634;28;98111;-68
2023/03/07 11:55:25;;;;;;;;;;;;;;;13.98;42.32;98589.94;4947760;28;98711;-70
2023/03/07 11:58:14;;;;;;;;;;;;;;;13.96;42.54;98591.44;4926080;28;98289;-70
2023/03/07 12:00:48;;;;;;;;;;;;;;;13.95;42.31;98589.81;4921320;28;98093;-70
2023/03/07 12:03:33;;;;;;;;;;;;;;;13.96;42.54;98581.38;4939797;28;98282;-67
2023/03/07 12:06:30;;;;;;;;;;;;;;;13.97;42.56;98580.25;4933731;28;98170;-69
2023/03/07 12:09:08;;;;;;;;;;;;;;;13.98;42.20;98562.88;4949439;28;98277;-69
2023/03/07 12:11:50;;;;;;;;;;;;;;;14.11;42.29;98571.00;4914880;28;98886;-69
2023/03/07 12:14:35;;;;;;;;;;;;;;;14.17;41.99;98556.91;4921630;28;99998;-67
2023/03/07 12:17:23;;;;;;;;;;;;;;;14.21;42.20;98557.81;4923375;28;97989;-67
2023/03/07 12:20:01;;;;;;;;;;;;;;;14.25;41.92;98569.56;4941805;28;98172;-68
2023/03/07 12:22:50;;;;;;;;;;;;;;;14.25;42.24;98560.66;4923128;28;97977;-70
2023/03/07 12:25:38;;;;;;;;;;;;;;;14.31;41.96;98556.59;4940793;28;97880;-69
2023/03/07 12:28:26;;;;;;;;;;;;;;;14.37;41.90;98547.13;4937016;28;98290;-69
2023/03/07 12:30:58;;;;;;;;;;;;;;;14.47;42.03;98541.25;4924262;28;98028;-69
2023/03/07 12:34:06;;;;;;;;;;;;;;;14.38;42.02;98543.28;4938669;28;98347;-70
2023/03/07 12:36:50;;;;;;;;;;;;;;;14.33;42.08;98548.13;4938090;28;98073;-68
2023/03/07 12:39:51;;;;;;;;;;;;;;;14.24;42.46;98546.31;4918489;28;98048;-70
2023/03/07 12:42:17;;;;;;;;;;;;;;;14.19;42.12;98537.63;4912475;28;97879;-67
2023/03/07 12:45:09;;;;;;;;;;;;;;;14.18;42.57;98536.81;4936635;28;99603;-70
2023/03/07 12:47:54;;;;;;;;;;;;;;;14.25;42.49;98534.34;4938972;28;99592;-68
2023/03/07 12:50:44;;;;;;;;;;;;;;;14.33;42.32;98529.16;4937486;28;97971;-69
2023/03/07 12:53:28;;;;;;;;;;;;;;;14.48;41.71;98528.47;4925227;28;99767;-68
2023/03/07 12:56:03;;;;;;;;;;;;;;;14.56;41.74;98529.53;4934014;28;98191;-68
2023/03/07 12:59:01;;;;;;;;;;;;;;;14.48;41.87;98525.78;4935925;28;99758;-68